Time,TemperatureF,DewpointF,PressureIn,WindDirection,WindDirectionDegrees,WindSpeedMPH,WindSpeedGustMPH,Humidity,HourlyPrecipIn,Conditions,Clouds,dailyrainin,SoftwareType,DateUTC
2013-09-17 00:00:00,80.3,77.8,29.97,North,0,0.0,0.0,92,0.00,RA,,0.00,WeatherDisplay:10.37,2013-09-17 05:00:00,
2013-09-17 00:05:00,80.3,78.1,29.97,North,0,0.0,0.0,93,0.00,RA,,0.00,WeatherDisplay:10.37,2013-09-17 05:05:00,
2013-09-17 00:10:00,80.4,78.2,29.97,North,0,0.0,0.0,93,0.00,RA,,0.00,WeatherDisplay:10.37,2013-09-17 05:10:00,
2013-09-17 00:15:00,80.4,78.2,29.97,North,0,0.0,0.0,93,0.00,RA,,0.00,WeatherDisplay:10.37,2013-09-17 05:15:00,
2013-09-17 00:20:00,80.3,78.1,29.97,North,0,0.0,0.0,93,0.00,RA,,0.00,WeatherDisplay:10.37,2013-09-17 05:20:00,
2013-09-17 00:25:00,80.2,78.3,29.97,North,0,0.0,0.0,94,0.00,CLR,,0.00,WeatherDisplay:10.37,2013-09-17 05:25:00,
2013-09-17 00:30:00,80.3,78.4,29.97,North,0,0.0,0.0,94,0.00,CLR,,0.00,WeatherDisplay:10.37,2013-09-17 05:30:00,
2013-09-17 00:35:00,80.2,78.3,29.97,North,0,0.0,0.0,94,0.00,CLR,,0.00,WeatherDisplay:10.37,2013-09-17 05:35:00,
2013-09-17 00:40:00,80.3,78.4,29.97,North,0,0.0,0.0,94,0.00,CLR,,0.00,WeatherDisplay:10.37,2013-09-17 05:40:00,
2013-09-17 00:45:00,80.2,78.3,29.97,North,0,0.0,0.0,94,0.00,CLR,,0.00,WeatherDisplay:10.37,2013-09-17 05:45:00,
2013-09-17 00:50:00,80.3,78.4,29.97,North,0,0.0,0.0,94,0.00,CLR,,0.00,WeatherDisplay:10.37,2013-09-17 05:50:00,
2013-09-17 00:55:00,80.3,78.4,29.97,North,0,0.0,0.0,94,0.00,CLR,,0.00,WeatherDisplay:10.37,2013-09-17 05:55:00,
2013-09-17 01:00:00,80.2,78.3,29.97,North,0,0.0,0.0,94,0.00,CLR,,0.00,WeatherDisplay:10.37,2013-09-17 06:00:00,
2013-09-17 01:05:00,80.2,78.3,29.97,North,0,0.0,0.0,94,0.00,CLR,,0.00,WeatherDisplay:10.37,2013-09-17 06:05:00,
2013-09-17 01:10:00,80.3,78.4,29.96,North,0,0.0,0.0,94,0.00,CLR,,0.00,WeatherDisplay:10.37,2013-09-17 06:10:00,
2013-09-17 01:15:00,80.3,78.4,29.96,North,0,0.0,0.0,94,0.00,CLR,,0.00,WeatherDisplay:10.37,2013-09-17 06:15:00,
2013-09-17 01:20:00,80.3,78.4,29.96,North,0,0.0,0.0,94,0.00,CLR,,0.00,WeatherDisplay:10.37,2013-09-17 06:20:00,
2013-09-17 01:25:00,80.3,78.4,29.96,North,0,0.0,0.0,94,0.00,CLR,,0.00,WeatherDisplay:10.37,2013-09-17 06:25:00,
2013-09-17 01:30:00,80.4,78.5,29.96,North,0,0.0,0.0,94,0.00,CLR,,0.00,WeatherDisplay:10.37,2013-09-17 06:30:00,
2013-09-17 01:35:00,80.4,78.5,29.96,North,0,0.0,0.0,94,0.00,CLR,,0.00,WeatherDisplay:10.37,2013-09-17 06:35:00,
2013-09-17 01:40:00,80.3,78.4,29.96,North,0,0.0,0.0,94,0.00,CLR,,0.00,WeatherDisplay:10.37,2013-09-17 06:40:00,
2013-09-17 01:45:00,80.4,78.5,29.96,North,0,0.0,0.0,94,0.00,CLR,,0.00,WeatherDisplay:10.37,2013-09-17 06:45:00,
2013-09-17 01:50:00,80.3,78.4,29.96,North,0,0.0,0.0,94,0.00,CLR,,0.00,WeatherDisplay:10.37,2013-09-17 06:50:00,
2013-09-17 01:55:00,80.2,78.3,29.96,North,0,0.0,0.0,94,0.00,CLR,,0.00,WeatherDisplay:10.37,2013-09-17 06:55:00,
2013-09-17 02:00:00,80.3,78.4,29.96,North,0,0.0,0.0,94,0.00,CLR,,0.00,WeatherDisplay:10.37,2013-09-17 07:00:00,
2013-09-17 02:05:00,80.4,78.5,29.96,North,0,0.0,0.0,94,0.00,CLR,,0.00,WeatherDisplay:10.37,2013-09-17 07:05:00,
2013-09-17 02:10:00,80.5,78.6,29.96,North,0,0.0,0.0,94,0.00,CLR,,0.00,WeatherDisplay:10.37,2013-09-17 07:10:00,
2013-09-17 02:15:00,80.4,78.5,29.96,North,0,0.0,0.0,94,0.00,CLR,,0.00,WeatherDisplay:10.37,2013-09-17 07:15:00,
2013-09-17 02:20:00,80.4,78.5,29.96,North,0,0.0,0.0,94,0.00,CLR,,0.00,WeatherDisplay:10.37,2013-09-17 07:20:00,
2013-09-17 02:25:00,80.4,78.5,29.96,North,0,0.0,0.0,94,0.00,CLR,,0.00,WeatherDisplay:10.37,2013-09-17 07:25:00,
2013-09-17 02:30:00,80.4,78.5,29.96,North,0,0.0,0.0,94,0.00,CLR,,0.00,WeatherDisplay:10.37,2013-09-17 07:30:00,
2013-09-17 02:35:00,80.5,78.6,29.95,North,0,0.0,0.0,94,0.00,CLR,,0.00,WeatherDisplay:10.37,2013-09-17 07:35:00,
2013-09-17 02:40:00,80.3,78.4,29.95,North,0,0.0,0.0,94,0.00,CLR,,0.00,WeatherDisplay:10.37,2013-09-17 07:40:00,
2013-09-17 02:45:00,80.3,78.4,29.95,North,0,0.0,0.0,94,0.00,CLR,,0.00,WeatherDisplay:10.37,2013-09-17 07:45:00,
2013-09-17 02:50:00,80.3,78.4,29.95,North,0,0.0,0.0,94,0.00,CLR,,0.00,WeatherDisplay:10.37,2013-09-17 07:50:00,
2013-09-17 02:55:00,80.2,78.3,29.95,North,0,0.0,0.0,94,0.00,CLR,,0.00,WeatherDisplay:10.37,2013-09-17 07:55:00,
2013-09-17 03:00:00,80.1,78.2,29.95,North,0,0.0,0.0,94,0.00,CLR,,0.00,WeatherDisplay:10.37,2013-09-17 08:00:00,
2013-09-17 03:05:00,80.2,78.3,29.95,North,0,0.0,0.0,94,0.00,CLR,,0.00,WeatherDisplay:10.37,2013-09-17 08:05:00,
2013-09-17 03:10:00,80.2,78.3,29.95,North,0,0.0,0.0,94,0.00,CLR,,0.00,WeatherDisplay:10.37,2013-09-17 08:10:00,
2013-09-17 03:15:00,80.3,78.4,29.95,North,0,0.0,0.0,94,0.00,CLR,,0.00,WeatherDisplay:10.37,2013-09-17 08:15:00,
2013-09-17 03:20:00,80.4,78.5,29.95,North,0,0.0,0.0,94,0.00,CLR,,0.00,WeatherDisplay:10.37,2013-09-17 08:20:00,
2013-09-17 03:25:00,80.2,78.3,29.95,North,0,0.0,0.0,94,0.00,CLR,,0.00,WeatherDisplay:10.37,2013-09-17 08:25:00,
2013-09-17 03:30:00,80.2,78.3,29.94,North,0,0.0,0.0,94,0.00,CLR,,0.00,WeatherDisplay:10.37,2013-09-17 08:30:00,
2013-09-17 03:35:00,80.4,78.5,29.94,North,0,0.0,0.0,94,0.00,CLR,,0.00,WeatherDisplay:10.37,2013-09-17 08:35:00,
2013-09-17 03:40:00,80.5,78.9,29.94,North,0,0.0,0.0,95,0.00,CLR,,0.00,WeatherDisplay:10.37,2013-09-17 08:40:00,
2013-09-17 03:45:00,80.4,78.8,29.94,North,0,0.0,0.0,95,0.00,CLR,,0.00,WeatherDisplay:10.37,2013-09-17 08:45:00,
2013-09-17 03:50:00,80.4,78.8,29.94,North,0,0.0,0.0,95,0.00,CLR,,0.00,WeatherDisplay:10.37,2013-09-17 08:50:00,
2013-09-17 03:55:00,80.3,78.7,29.94,North,0,0.0,0.0,95,0.00,CLR,,0.00,WeatherDisplay:10.37,2013-09-17 08:55:00,
2013-09-17 04:00:00,80.4,78.8,29.93,North,0,0.0,0.0,95,0.00,CLR,,0.00,WeatherDisplay:10.37,2013-09-17 09:00:00,
2013-09-17 04:05:00,80.1,78.5,29.93,North,0,0.0,0.0,95,0.00,CLR,,0.00,WeatherDisplay:10.37,2013-09-17 09:05:00,
2013-09-17 04:10:00,80.2,78.6,29.93,North,0,0.0,0.0,95,0.00,CLR,,0.00,WeatherDisplay:10.37,2013-09-17 09:10:00,
2013-09-17 04:15:00,80.1,78.5,29.93,North,0,0.0,0.0,95,0.00,CLR,,0.00,WeatherDisplay:10.37,2013-09-17 09:15:00,
2013-09-17 04:20:00,80.0,78.4,29.93,North,0,0.0,0.0,95,0.00,CLR,,0.00,WeatherDisplay:10.37,2013-09-17 09:20:00,
2013-09-17 04:25:00,80.1,78.5,29.93,North,0,0.0,0.0,95,0.00,CLR,,0.00,WeatherDisplay:10.37,2013-09-17 09:25:00,
2013-09-17 04:30:00,80.0,78.4,29.93,North,0,0.0,0.0,95,0.00,CLR,,0.00,WeatherDisplay:10.37,2013-09-17 09:30:00,
2013-09-17 04:35:00,80.0,78.4,29.93,North,0,0.0,0.0,95,0.00,CLR,,0.00,WeatherDisplay:10.37,2013-09-17 09:35:00,
2013-09-17 04:40:00,80.0,78.4,29.93,North,0,0.0,0.0,95,0.00,CLR,,0.00,WeatherDisplay:10.37,2013-09-17 09:40:00,
2013-09-17 04:45:00,80.0,78.4,29.93,North,0,0.0,0.0,95,0.00,CLR,,0.00,WeatherDisplay:10.37,2013-09-17 09:45:00,
2013-09-17 04:51:00,80.2,78.6,29.93,North,0,0.0,0.0,95,0.00,CLR,,0.00,WeatherDisplay:10.37,2013-09-17 09:51:00,
2013-09-17 04:56:00,80.1,78.5,29.92,North,0,0.0,0.0,95,0.00,CLR,,0.00,WeatherDisplay:10.37,2013-09-17 09:56:00,
2013-09-17 05:01:00,80.1,78.5,29.93,North,0,0.0,0.0,95,0.00,CLR,,0.00,WeatherDisplay:10.37,2013-09-17 10:01:00,
2013-09-17 05:06:00,80.2,78.6,29.93,North,0,0.0,0.0,95,0.00,CLR,,0.00,WeatherDisplay:10.37,2013-09-17 10:06:00,
2013-09-17 05:11:00,80.1,78.5,29.93,North,0,0.0,0.0,95,0.00,CLR,,0.00,WeatherDisplay:10.37,2013-09-17 10:11:00,
2013-09-17 05:16:00,80.1,78.5,29.93,North,0,0.0,0.0,95,0.00,CLR,,0.00,WeatherDisplay:10.37,2013-09-17 10:16:00,
2013-09-17 05:21:00,80.2,78.6,29.93,North,0,0.0,0.0,95,0.00,CLR,,0.00,WeatherDisplay:10.37,2013-09-17 10:21:00,
2013-09-17 05:26:00,80.0,78.4,29.93,North,0,0.0,0.0,95,0.00,CLR,,0.00,WeatherDisplay:10.37,2013-09-17 10:26:00,
2013-09-17 05:31:00,80.2,78.6,29.93,North,0,0.0,0.0,95,0.00,CLR,,0.00,WeatherDisplay:10.37,2013-09-17 10:31:00,
2013-09-17 05:36:00,80.2,78.6,29.93,North,0,0.0,0.0,95,0.00,CLR,,0.00,WeatherDisplay:10.37,2013-09-17 10:36:00,
2013-09-17 05:41:00,80.0,78.8,29.93,North,0,0.0,0.0,96,0.00,CLR,,0.00,WeatherDisplay:10.37,2013-09-17 10:41:00,
2013-09-17 05:46:00,80.1,78.9,29.93,North,0,0.0,0.0,96,0.00,CLR,,0.00,WeatherDisplay:10.37,2013-09-17 10:46:00,
2013-09-17 05:51:00,79.9,78.7,29.93,North,0,0.0,0.0,96,0.00,CLR,,0.00,WeatherDisplay:10.37,2013-09-17 10:51:00,
2013-09-17 05:56:00,80.0,78.8,29.93,North,0,0.0,0.0,96,0.00,CLR,,0.00,WeatherDisplay:10.37,2013-09-17 10:56:00,
2013-09-17 06:01:00,80.0,78.8,29.93,North,0,0.0,0.0,96,0.00,CLR,,0.00,WeatherDisplay:10.37,2013-09-17 11:01:00,
2013-09-17 06:06:00,80.0,78.8,29.93,North,0,0.0,0.0,96,0.00,CLR,,0.00,WeatherDisplay:10.37,2013-09-17 11:06:00,
2013-09-17 06:11:00,79.9,78.7,29.94,North,0,0.0,0.0,96,0.00,CLR,,0.00,WeatherDisplay:10.37,2013-09-17 11:11:00,
2013-09-17 06:16:00,80.0,78.8,29.94,North,0,0.0,0.0,96,0.00,CLR,,0.00,WeatherDisplay:10.37,2013-09-17 11:16:00,
2013-09-17 06:21:00,79.7,78.5,29.94,North,0,0.0,0.0,96,0.00,CLR,,0.00,WeatherDisplay:10.37,2013-09-17 11:21:00,
2013-09-17 06:26:00,79.8,78.6,29.94,North,0,0.0,0.0,96,0.00,CLR,,0.00,WeatherDisplay:10.37,2013-09-17 11:26:00,
2013-09-17 06:31:00,79.9,78.7,29.94,North,0,0.0,0.0,96,0.00,CLR,,0.00,WeatherDisplay:10.37,2013-09-17 11:31:00,
2013-09-17 06:36:00,79.8,78.6,29.95,North,0,0.0,0.0,96,0.00,CLR,,0.00,WeatherDisplay:10.37,2013-09-17 11:36:00,
2013-09-17 06:41:00,79.8,78.6,29.95,North,0,0.0,0.0,96,0.00,CLR,,0.00,WeatherDisplay:10.37,2013-09-17 11:41:00,
2013-09-17 06:46:00,79.9,78.7,29.95,North,0,0.0,0.0,96,0.00,CLR,,0.00,WeatherDisplay:10.37,2013-09-17 11:46:00,
2013-09-17 06:51:00,79.9,78.7,29.95,North,0,0.0,0.0,96,0.00,CLR,,0.00,WeatherDisplay:10.37,2013-09-17 11:51:00,
2013-09-17 06:56:00,79.9,78.7,29.95,North,0,0.0,0.0,96,0.00,CLR,,0.00,WeatherDisplay:10.37,2013-09-17 11:56:00,
2013-09-17 07:01:00,79.9,78.7,29.95,North,0,0.0,0.0,96,0.00,CLR,,0.00,WeatherDisplay:10.37,2013-09-17 12:01:00,
2013-09-17 07:06:00,79.7,78.5,29.95,North,0,0.0,0.0,96,0.00,CLR,,0.00,WeatherDisplay:10.37,2013-09-17 12:06:00,
2013-09-17 07:11:00,79.7,78.5,29.95,North,0,0.0,0.0,96,0.00,CLR,,0.00,WeatherDisplay:10.37,2013-09-17 12:11:00,
2013-09-17 07:16:00,79.8,78.6,29.95,North,0,0.0,0.0,96,0.00,CLR,,0.00,WeatherDisplay:10.37,2013-09-17 12:16:00,
2013-09-17 07:21:00,79.7,78.5,29.95,North,0,0.0,0.0,96,0.00,CLR,,0.00,WeatherDisplay:10.37,2013-09-17 12:21:00,
2013-09-17 07:26:00,79.7,78.5,29.95,North,0,0.0,0.0,96,0.00,CLR,,0.00,WeatherDisplay:10.37,2013-09-17 12:26:00,
2013-09-17 07:31:00,79.8,78.6,29.95,North,0,0.0,0.0,96,0.00,CLR,,0.00,WeatherDisplay:10.37,2013-09-17 12:31:00,
2013-09-17 07:36:00,79.8,78.6,29.96,North,0,0.0,0.0,96,0.00,CLR,,0.00,WeatherDisplay:10.37,2013-09-17 12:36:00,
2013-09-17 07:41:00,79.4,78.2,29.96,North,0,0.0,0.0,96,0.00,CLR,,0.00,WeatherDisplay:10.37,2013-09-17 12:41:00,
2013-09-17 07:46:00,79.7,78.5,29.96,North,0,0.0,0.0,96,0.00,CLR,,0.00,WeatherDisplay:10.37,2013-09-17 12:46:00,
2013-09-17 07:51:00,79.7,78.5,29.96,North,0,0.0,0.0,96,0.00,CLR,,0.00,WeatherDisplay:10.37,2013-09-17 12:51:00,
2013-09-17 07:56:00,79.5,78.3,29.96,North,0,0.0,0.0,96,0.00,CLR,,0.00,WeatherDisplay:10.37,2013-09-17 12:56:00,
2013-09-17 08:01:00,79.7,78.5,29.96,North,0,0.0,0.0,96,0.00,CLR,,0.00,WeatherDisplay:10.37,2013-09-17 13:01:00,
2013-09-17 08:06:00,79.8,78.6,29.97,North,0,0.0,0.0,96,0.00,CLR,,0.00,WeatherDisplay:10.37,2013-09-17 13:06:00,
2013-09-17 08:11:00,79.9,78.7,29.97,North,0,0.0,0.0,96,0.00,CLR,,0.00,WeatherDisplay:10.37,2013-09-17 13:11:00,
2013-09-17 08:16:00,79.9,78.7,29.97,North,0,0.0,0.0,96,0.00,CLR,,0.00,WeatherDisplay:10.37,2013-09-17 13:16:00,
2013-09-17 08:21:00,80.6,79.4,29.97,North,0,0.0,0.0,96,0.00,CLR,,0.00,WeatherDisplay:10.37,2013-09-17 13:21:00,
2013-09-17 08:26:00,80.5,78.9,29.97,North,0,0.0,0.0,95,0.00,CLR,,0.00,WeatherDisplay:10.37,2013-09-17 13:26:00,
2013-09-17 08:31:00,80.7,79.1,29.97,North,0,0.0,0.0,95,0.00,CLR,,0.00,WeatherDisplay:10.37,2013-09-17 13:31:00,
2013-09-17 08:36:00,80.9,79.0,29.98,North,0,0.0,0.0,94,0.00,CLR,,0.00,WeatherDisplay:10.37,2013-09-17 13:36:00,
2013-09-17 08:41:00,81.0,78.8,29.98,North,0,0.0,0.0,93,0.00,CLR,,0.00,WeatherDisplay:10.37,2013-09-17 13:41:00,
2013-09-17 08:46:00,81.4,78.9,29.98,North,0,0.0,0.0,92,0.00,CLR,,0.00,WeatherDisplay:10.37,2013-09-17 13:46:00,
2013-09-17 08:51:00,81.3,78.8,29.98,North,0,0.0,0.0,92,0.00,CLR,,0.00,WeatherDisplay:10.37,2013-09-17 13:51:00,
2013-09-17 09:03:00,81.5,78.9,29.98,North,0,0.0,0.0,92,0.00,CLR,,0.00,WeatherDisplay:10.37,2013-09-17 14:03:00,
2013-09-17 09:08:00,81.4,78.5,29.98,North,0,0.0,0.0,91,0.00,CLR,,0.00,WeatherDisplay:10.37,2013-09-17 14:08:00,
2013-09-17 09:13:00,81.3,78.4,29.99,North,0,0.0,0.0,91,0.00,CLR,,0.00,WeatherDisplay:10.37,2013-09-17 14:13:00,
2013-09-17 09:18:00,81.4,78.2,29.99,North,0,0.0,0.0,90,0.00,CLR,,0.00,WeatherDisplay:10.37,2013-09-17 14:18:00,
2013-09-17 09:23:00,81.5,78.3,29.99,North,0,0.0,0.0,90,0.00,CLR,,0.00,WeatherDisplay:10.37,2013-09-17 14:23:00,
2013-09-17 09:28:00,81.7,78.1,29.99,North,0,0.0,0.0,89,0.00,CLR,,0.00,WeatherDisplay:10.37,2013-09-17 14:28:00,
2013-09-17 09:33:00,82.1,78.2,29.99,North,0,0.0,0.0,88,0.00,CLR,,0.00,WeatherDisplay:10.37,2013-09-17 14:33:00,
2013-09-17 09:38:00,82.4,78.1,29.99,North,0,0.0,0.0,87,0.00,CLR,,0.00,WeatherDisplay:10.37,2013-09-17 14:38:00,
2013-09-17 09:43:00,82.8,78.2,29.99,North,0,0.0,0.0,86,0.00,CLR,,0.00,WeatherDisplay:10.37,2013-09-17 14:43:00,
2013-09-17 09:48:00,83.1,78.1,29.99,North,0,0.0,0.0,85,0.00,CLR,,0.00,WeatherDisplay:10.37,2013-09-17 14:48:00,
2013-09-17 09:53:00,83.3,77.6,29.99,North,0,0.0,0.0,83,0.00,CLR,,0.00,WeatherDisplay:10.37,2013-09-17 14:53:00,
2013-09-17 09:58:00,83.6,77.9,29.99,North,0,0.0,0.0,83,0.00,CLR,,0.00,WeatherDisplay:10.37,2013-09-17 14:58:00,
2013-09-17 10:03:00,83.8,77.3,29.99,North,0,0.0,0.0,81,0.00,CLR,,0.00,WeatherDisplay:10.37,2013-09-17 15:03:00,
2013-09-17 10:08:00,83.9,76.7,30.00,North,0,0.0,0.0,79,0.00,CLR,,0.00,WeatherDisplay:10.37,2013-09-17 15:08:00,
2013-09-17 10:14:00,84.1,76.5,30.00,North,0,0.0,0.0,78,0.00,CLR,,0.00,WeatherDisplay:10.37,2013-09-17 15:14:00,
2013-09-17 10:19:00,84.3,76.7,30.00,North,0,0.0,0.0,78,0.00,CLR,,0.00,WeatherDisplay:10.37,2013-09-17 15:19:00,
2013-09-17 10:24:00,84.2,76.6,30.00,North,0,0.0,0.0,78,0.00,CLR,,0.00,WeatherDisplay:10.37,2013-09-17 15:24:00,
2013-09-17 10:29:00,84.3,76.3,30.00,North,0,0.0,0.0,77,0.00,CLR,,0.00,WeatherDisplay:10.37,2013-09-17 15:29:00,
2013-09-17 10:34:00,84.0,75.6,30.00,North,0,0.0,0.0,76,0.00,CLR,,0.00,WeatherDisplay:10.37,2013-09-17 15:34:00,
2013-09-17 10:39:00,84.2,75.8,30.00,North,0,0.0,0.0,76,0.00,CLR,,0.00,WeatherDisplay:10.37,2013-09-17 15:39:00,
2013-09-17 10:44:00,84.4,76.4,30.00,North,0,0.0,0.0,77,0.00,CLR,,0.00,WeatherDisplay:10.37,2013-09-17 15:44:00,
2013-09-17 10:49:00,84.4,76.0,30.00,North,0,0.0,0.0,76,0.00,CLR,,0.00,WeatherDisplay:10.37,2013-09-17 15:49:00,
2013-09-17 10:54:00,84.6,76.6,30.00,North,0,0.0,0.0,77,0.00,CLR,,0.00,WeatherDisplay:10.37,2013-09-17 15:54:00,
2013-09-17 10:59:00,85.0,76.2,30.00,North,0,0.0,0.0,75,0.00,CLR,,0.00,WeatherDisplay:10.37,2013-09-17 15:59:00,
2013-09-17 11:04:00,85.0,75.8,30.00,North,0,0.0,0.0,74,0.00,CLR,,0.00,WeatherDisplay:10.37,2013-09-17 16:04:00,
2013-09-17 11:09:00,85.2,76.0,30.00,North,0,0.0,0.0,74,0.00,CLR,,0.00,WeatherDisplay:10.37,2013-09-17 16:09:00,
2013-09-17 11:14:00,85.5,75.9,30.00,North,0,0.0,0.0,73,0.00,CLR,,0.00,WeatherDisplay:10.37,2013-09-17 16:14:00,
2013-09-17 11:19:00,85.8,75.7,30.00,North,0,0.0,0.0,72,0.00,CLR,,0.00,WeatherDisplay:10.37,2013-09-17 16:19:00,
2013-09-17 11:24:00,85.9,75.4,30.00,North,0,0.0,0.0,71,0.00,CLR,,0.00,WeatherDisplay:10.37,2013-09-17 16:24:00,
2013-09-17 11:29:00,85.6,75.1,30.00,North,0,0.0,0.0,71,0.00,CLR,,0.00,WeatherDisplay:10.37,2013-09-17 16:29:00,
2013-09-17 11:34:00,85.8,75.7,30.00,North,0,0.0,0.0,72,0.00,CLR,,0.00,WeatherDisplay:10.37,2013-09-17 16:34:00,
2013-09-17 11:39:00,85.7,75.6,30.00,North,0,0.0,0.0,72,0.00,CLR,,0.00,WeatherDisplay:10.37,2013-09-17 16:39:00,
2013-09-17 11:44:00,85.7,75.2,30.00,North,0,0.0,0.0,71,0.00,CLR,,0.00,WeatherDisplay:10.37,2013-09-17 16:44:00,
2013-09-17 11:49:00,85.8,74.9,30.00,North,0,0.0,0.0,70,0.00,CLR,,0.00,WeatherDisplay:10.37,2013-09-17 16:49:00,
2013-09-17 11:54:00,86.4,75.5,30.00,North,0,0.0,0.0,70,0.00,CLR,,0.00,WeatherDisplay:10.37,2013-09-17 16:54:00,
2013-09-17 11:59:00,86.6,74.8,30.00,North,0,0.0,0.0,68,0.00,CLR,,0.00,WeatherDisplay:10.37,2013-09-17 16:59:00,
2013-09-17 12:04:00,86.8,75.0,29.99,North,0,0.0,0.0,68,0.00,CLR,,0.00,WeatherDisplay:10.37,2013-09-17 17:04:00,
2013-09-17 12:09:00,86.5,74.2,29.99,North,0,0.0,0.0,67,0.00,CLR,,0.00,WeatherDisplay:10.37,2013-09-17 17:09:00,
2013-09-17 12:14:00,86.7,74.9,30.00,North,0,0.0,0.0,68,0.00,CLR,,0.00,WeatherDisplay:10.37,2013-09-17 17:14:00,
2013-09-17 12:19:00,86.7,74.4,29.99,North,0,0.0,0.0,67,0.00,CLR,,0.00,WeatherDisplay:10.37,2013-09-17 17:19:00,
2013-09-17 12:24:00,87.1,75.3,29.99,North,0,0.0,0.0,68,0.00,CLR,,0.00,WeatherDisplay:10.37,2013-09-17 17:24:00,
2013-09-17 12:29:00,87.5,74.7,29.99,North,0,0.0,0.0,66,0.00,CLR,,0.00,WeatherDisplay:10.37,2013-09-17 17:29:00,
2013-09-17 12:34:00,88.0,74.3,29.99,North,0,0.0,0.0,64,0.00,CLR,,0.00,WeatherDisplay:10.37,2013-09-17 17:34:00,
2013-09-17 12:39:00,88.3,74.6,29.99,North,0,0.0,0.0,64,0.00,CLR,,0.00,WeatherDisplay:10.37,2013-09-17 17:39:00,
2013-09-17 12:44:00,88.2,74.5,29.98,North,0,0.0,0.0,64,0.00,CLR,,0.00,WeatherDisplay:10.37,2013-09-17 17:44:00,
2013-09-17 12:49:00,88.2,74.9,29.98,North,0,0.0,0.0,65,0.00,CLR,,0.00,WeatherDisplay:10.37,2013-09-17 17:49:00,
2013-09-17 12:54:00,87.9,73.7,29.98,North,0,0.0,0.0,63,0.00,CLR,,0.00,WeatherDisplay:10.37,2013-09-17 17:54:00,
2013-09-17 12:59:00,87.9,74.2,29.98,North,0,0.0,0.0,64,0.00,CLR,,0.00,WeatherDisplay:10.37,2013-09-17 17:59:00,
2013-09-17 13:04:00,88.0,73.3,29.98,North,0,0.0,0.0,62,0.00,CLR,,0.00,WeatherDisplay:10.37,2013-09-17 18:04:00,
2013-09-17 13:09:00,88.2,73.5,29.98,North,0,0.0,0.0,62,0.00,CLR,,0.00,WeatherDisplay:10.37,2013-09-17 18:09:00,
2013-09-17 13:14:00,88.5,73.8,29.97,North,0,0.0,0.0,62,0.00,CLR,,0.00,WeatherDisplay:10.37,2013-09-17 18:14:00,
2013-09-17 13:19:00,88.6,73.9,29.97,North,0,0.0,0.0,62,0.00,CLR,,0.00,WeatherDisplay:10.37,2013-09-17 18:19:00,
2013-09-17 13:24:00,88.5,73.8,29.97,North,0,0.0,0.0,62,0.00,CLR,,0.00,WeatherDisplay:10.37,2013-09-17 18:24:00,
2013-09-17 13:29:00,88.5,74.3,29.97,North,0,0.0,0.0,63,0.00,CLR,,0.00,WeatherDisplay:10.37,2013-09-17 18:29:00,
2013-09-17 13:34:00,88.3,74.6,29.96,North,0,0.0,0.0,64,0.00,CLR,,0.00,WeatherDisplay:10.37,2013-09-17 18:34:00,
2013-09-17 13:39:00,88.0,73.3,29.96,North,0,0.0,0.0,62,0.00,CLR,,0.00,WeatherDisplay:10.37,2013-09-17 18:39:00,
2013-09-17 13:44:00,87.7,73.1,29.96,North,0,0.0,0.0,62,0.00,CLR,,0.00,WeatherDisplay:10.37,2013-09-17 18:44:00,
2013-09-17 13:49:00,87.6,73.9,29.95,North,0,0.0,0.0,64,0.00,CLR,,0.00,WeatherDisplay:10.37,2013-09-17 18:49:00,
2013-09-17 13:54:00,87.2,73.1,29.95,North,0,0.0,0.0,63,0.00,CLR,,0.00,WeatherDisplay:10.37,2013-09-17 18:54:00,
2013-09-17 13:59:00,87.1,73.9,29.95,North,0,0.0,0.0,65,0.00,CLR,,0.00,WeatherDisplay:10.37,2013-09-17 18:59:00,
2013-09-17 14:04:00,86.7,74.4,29.95,North,0,0.0,0.0,67,0.00,CLR,,0.00,WeatherDisplay:10.37,2013-09-17 19:04:00,
2013-09-17 14:09:00,86.5,74.2,29.95,North,0,0.0,0.0,67,0.00,CLR,,0.00,WeatherDisplay:10.37,2013-09-17 19:09:00,
2013-09-17 14:14:00,86.6,74.8,29.95,North,0,0.0,0.0,68,0.00,CLR,,0.00,WeatherDisplay:10.37,2013-09-17 19:14:00,
2013-09-17 14:19:00,86.7,74.4,29.95,North,0,0.0,0.0,67,0.00,CLR,,0.00,WeatherDisplay:10.37,2013-09-17 19:19:00,
2013-09-17 14:24:00,86.7,74.4,29.95,North,0,0.0,0.0,67,0.00,CLR,,0.00,WeatherDisplay:10.37,2013-09-17 19:24:00,
2013-09-17 14:29:00,87.2,74.5,29.94,North,0,0.0,0.0,66,0.00,CLR,,0.00,WeatherDisplay:10.37,2013-09-17 19:29:00,
2013-09-17 14:34:00,87.7,74.0,29.94,North,0,0.0,0.0,64,0.00,CLR,,0.00,WeatherDisplay:10.37,2013-09-17 19:34:00,
2013-09-17 14:39:00,87.7,73.1,29.94,North,0,0.0,0.0,62,0.00,CLR,,0.00,WeatherDisplay:10.37,2013-09-17 19:39:00,
2013-09-17 14:44:00,87.7,73.5,29.94,North,0,0.0,0.0,63,0.00,CLR,,0.00,WeatherDisplay:10.37,2013-09-17 19:44:00,
2013-09-17 14:49:00,87.5,73.3,29.94,North,0,0.0,0.0,63,0.00,CLR,,0.00,WeatherDisplay:10.37,2013-09-17 19:49:00,
2013-09-17 14:54:00,87.6,73.9,29.93,North,0,0.0,0.0,64,0.00,CLR,,0.00,WeatherDisplay:10.37,2013-09-17 19:54:00,
2013-09-17 14:59:00,87.8,74.1,29.93,North,0,0.0,0.0,64,0.00,CLR,,0.00,WeatherDisplay:10.37,2013-09-17 19:59:00,
2013-09-17 15:04:00,87.8,74.1,29.93,North,0,0.0,0.0,64,0.00,CLR,,0.00,WeatherDisplay:10.37,2013-09-17 20:04:00,
2013-09-17 15:09:00,87.4,74.6,29.93,North,0,0.0,0.0,66,0.00,CLR,,0.00,WeatherDisplay:10.37,2013-09-17 20:09:00,
2013-09-17 15:14:00,87.0,74.7,29.93,North,0,0.0,0.0,67,0.00,CLR,,0.00,WeatherDisplay:10.37,2013-09-17 20:14:00,
2013-09-17 15:19:00,86.9,75.5,29.93,North,0,0.0,0.0,69,0.00,CLR,,0.00,WeatherDisplay:10.37,2013-09-17 20:19:00,
2013-09-17 15:24:00,87.1,74.8,29.93,North,0,0.0,0.0,67,0.00,CLR,,0.00,WeatherDisplay:10.37,2013-09-17 20:24:00,
2013-09-17 15:29:00,87.2,74.5,29.93,North,0,0.0,0.0,66,0.00,CLR,,0.00,WeatherDisplay:10.37,2013-09-17 20:29:00,
2013-09-17 15:34:00,87.0,74.3,29.93,North,0,0.0,0.0,66,0.00,CLR,,0.00,WeatherDisplay:10.37,2013-09-17 20:34:00,
2013-09-17 15:39:00,87.0,73.8,29.93,North,0,0.0,0.0,65,0.00,CLR,,0.00,WeatherDisplay:10.37,2013-09-17 20:39:00,
2013-09-17 15:44:00,87.0,74.3,29.92,North,0,0.0,0.0,66,0.00,CLR,,0.00,WeatherDisplay:10.37,2013-09-17 20:44:00,
2013-09-17 15:49:00,87.0,73.8,29.92,North,0,0.0,0.0,65,0.00,CLR,,0.00,WeatherDisplay:10.37,2013-09-17 20:49:00,
2013-09-17 15:54:00,87.1,73.9,29.92,North,0,0.0,0.0,65,0.00,CLR,,0.00,WeatherDisplay:10.37,2013-09-17 20:54:00,
2013-09-17 15:59:00,87.1,74.4,29.92,North,0,0.0,0.0,66,0.00,CLR,,0.00,WeatherDisplay:10.37,2013-09-17 20:59:00,
2013-09-17 16:04:00,86.9,74.2,29.92,North,0,0.0,0.0,66,0.00,CLR,,0.00,WeatherDisplay:10.37,2013-09-17 21:04:00,
2013-09-17 16:09:00,86.8,75.0,29.92,North,0,0.0,0.0,68,0.00,CLR,,0.00,WeatherDisplay:10.37,2013-09-17 21:09:00,
2013-09-17 16:14:00,86.6,74.3,29.92,ESE,102,13.1,17.7,67,0.00,CLR,,0.00,WeatherDisplay:10.37,2013-09-17 21:14:00,
2013-09-17 16:19:00,86.5,74.7,29.92,ENE,73,13.7,18.4,68,0.00,CLR,,0.00,WeatherDisplay:10.37,2013-09-17 21:19:00,
2013-09-17 16:24:00,86.3,74.5,29.91,ESE,119,12.2,18.4,68,0.00,CLR,,0.00,WeatherDisplay:10.37,2013-09-17 21:24:00,
2013-09-17 16:29:00,86.0,73.8,29.91,East,99,14.8,19.0,67,0.00,CLR,,0.00,WeatherDisplay:10.37,2013-09-17 21:29:00,
2013-09-17 16:34:00,85.9,73.7,29.91,ENE,72,12.4,17.3,67,0.00,CLR,,0.00,WeatherDisplay:10.37,2013-09-17 21:34:00,
2013-09-17 16:39:00,86.0,74.2,29.91,ESE,103,12.2,20.7,68,0.00,CLR,,0.00,WeatherDisplay:10.37,2013-09-17 21:39:00,
2013-09-17 16:44:00,85.9,73.7,29.91,ESE,112,15.0,20.7,67,0.00,,,0.00,WeatherDisplay:10.37,2013-09-17 21:44:00,
2013-09-17 16:49:00,85.9,73.7,29.91,SE,134,16.5,21.9,67,0.00,,,0.00,WeatherDisplay:10.37,2013-09-17 21:49:00,
2013-09-17 16:54:00,85.8,73.6,29.91,SE,128,14.6,18.4,67,0.00,,,0.00,WeatherDisplay:10.37,2013-09-17 21:54:00,
2013-09-17 16:59:00,85.9,73.7,29.91,ESE,103,11.2,16.1,67,0.00,CLR,,0.00,WeatherDisplay:10.37,2013-09-17 21:59:00,
2013-09-17 17:04:00,86.2,74.4,29.91,ENE,73,12.0,17.3,68,0.00,CLR,,0.00,WeatherDisplay:10.37,2013-09-17 22:04:00,
2013-09-17 17:09:00,86.5,74.7,29.91,ENE,69,16.0,22.2,68,0.00,CLR,,0.00,WeatherDisplay:10.37,2013-09-17 22:09:00,
2013-09-17 17:14:00,85.0,73.7,29.91,ESE,114,7.7,10.5,69,0.05,RA,,0.05,WeatherDisplay:10.37,2013-09-17 22:14:00,
2013-09-17 17:19:00,84.0,74.8,29.91,SE,131,8.6,10.4,74,0.05,RA,,0.05,WeatherDisplay:10.37,2013-09-17 22:19:00,
2013-09-17 17:24:00,83.4,75.8,29.91,SE,133,11.2,16.1,78,0.05,RA,,0.05,WeatherDisplay:10.37,2013-09-17 22:24:00,
2013-09-17 17:29:00,83.3,76.5,29.91,ESE,104,10.7,15.0,80,0.05,RA,,0.05,WeatherDisplay:10.37,2013-09-17 22:29:00,
2013-09-17 17:34:00,83.1,76.3,29.91,East,90,11.8,18.4,80,0.05,,,0.05,WeatherDisplay:10.37,2013-09-17 22:34:00,
2013-09-17 17:39:00,83.1,76.3,29.91,SSE,168,12.1,19.6,80,0.05,CLR,,0.05,WeatherDisplay:10.37,2013-09-17 22:39:00,
2013-09-17 17:44:00,83.3,76.5,29.91,ESE,109,12.0,18.7,80,0.05,CLR,,0.05,WeatherDisplay:10.37,2013-09-17 22:44:00,
2013-09-17 17:49:00,83.4,76.2,29.91,ESE,103,12.7,17.2,79,0.05,CLR,,0.05,WeatherDisplay:10.37,2013-09-17 22:49:00,
2013-09-17 17:54:00,83.4,76.6,29.91,SE,124,10.3,18.4,80,0.05,CLR,,0.05,WeatherDisplay:10.37,2013-09-17 22:54:00,
2013-09-17 17:59:00,82.5,74.9,29.91,SSE,158,11.7,18.4,78,0.05,CLR,,0.05,WeatherDisplay:10.37,2013-09-17 22:59:00,
2013-09-17 18:04:00,81.7,74.5,29.91,South,188,8.9,12.7,79,0.05,CLR,,0.05,WeatherDisplay:10.37,2013-09-17 23:04:00,
2013-09-17 18:09:00,81.2,74.4,29.91,ESE,119,11.3,19.6,80,0.05,CLR,,0.05,WeatherDisplay:10.37,2013-09-17 23:09:00,
2013-09-17 18:14:00,81.0,75.3,29.91,SE,124,6.9,13.8,83,0.00,CLR,,0.05,WeatherDisplay:10.37,2013-09-17 23:14:00,
2013-09-17 18:19:00,81.1,75.8,29.91,ESE,109,11.2,14.6,84,0.00,CLR,,0.05,WeatherDisplay:10.37,2013-09-17 23:19:00,
2013-09-17 18:24:00,81.4,76.5,29.91,ESE,119,9.4,10.4,85,0.00,CLR,,0.05,WeatherDisplay:10.37,2013-09-17 23:24:00,
2013-09-17 18:29:00,81.3,76.7,29.91,ESE,104,10.8,15.0,86,0.00,CLR,,0.05,WeatherDisplay:10.37,2013-09-17 23:29:00,
2013-09-17 18:34:00,81.4,76.5,29.91,ESE,113,12.2,17.4,85,0.00,CLR,,0.05,WeatherDisplay:10.37,2013-09-17 23:34:00,
2013-09-17 18:39:00,81.6,76.6,29.91,ESE,123,13.8,16.5,85,0.00,CLR,,0.05,WeatherDisplay:10.37,2013-09-17 23:39:00,
2013-09-17 18:44:00,81.8,76.1,29.91,ESE,106,13.4,19.6,83,0.00,CLR,,0.05,WeatherDisplay:10.37,2013-09-17 23:44:00,
2013-09-17 18:49:00,81.8,75.4,29.91,ESE,113,16.6,21.3,81,0.00,,,0.05,WeatherDisplay:10.37,2013-09-17 23:49:00,
2013-09-17 18:54:00,82.0,75.2,29.91,ESE,106,13.0,20.7,80,0.00,,,0.05,WeatherDisplay:10.37,2013-09-17 23:54:00,
2013-09-17 18:59:00,82.4,75.2,29.91,ESE,110,13.6,20.5,79,0.05,RA,,0.10,WeatherDisplay:10.37,2013-09-17 23:59:00,
2013-09-17 19:04:00,82.5,75.3,29.91,SE,134,14.1,20.7,79,0.05,RA,,0.10,WeatherDisplay:10.37,2013-09-18 00:04:00,
2013-09-17 19:09:00,82.5,75.7,29.91,SSE,158,12.0,18.4,80,0.05,RA,,0.10,WeatherDisplay:10.37,2013-09-18 00:09:00,
2013-09-17 19:14:00,82.6,76.2,29.91,ESE,117,13.2,18.4,81,0.05,RA,,0.10,WeatherDisplay:10.37,2013-09-18 00:14:00,
2013-09-17 19:19:00,82.5,76.4,29.91,SE,141,10.4,18.4,82,0.05,,,0.10,WeatherDisplay:10.37,2013-09-18 00:19:00,
2013-09-17 19:24:00,82.3,76.3,29.91,ESE,103,13.4,18.4,82,0.05,CLR,,0.10,WeatherDisplay:10.37,2013-09-18 00:24:00,
2013-09-17 19:29:00,82.3,76.3,29.91,SE,141,11.4,17.3,82,0.05,CLR,,0.10,WeatherDisplay:10.37,2013-09-18 00:29:00,
2013-09-17 19:34:00,82.2,76.5,29.91,ESE,112,10.4,15.0,83,0.05,CLR,,0.10,WeatherDisplay:10.37,2013-09-18 00:34:00,
2013-09-17 19:39:00,82.3,76.6,29.91,SE,144,10.2,13.8,83,0.05,CLR,,0.10,WeatherDisplay:10.37,2013-09-18 00:39:00,
2013-09-17 19:44:00,82.2,76.5,29.92,SE,130,12.3,18.4,83,0.05,CLR,,0.10,WeatherDisplay:10.37,2013-09-18 00:44:00,
2013-09-17 19:49:00,82.1,76.8,29.92,East,86,14.8,16.1,84,0.05,CLR,,0.10,WeatherDisplay:10.37,2013-09-18 00:49:00,
2013-09-17 19:54:00,81.9,76.2,29.92,East,92,9.0,15.0,83,0.05,CLR,,0.10,WeatherDisplay:10.37,2013-09-18 00:54:00,
2013-09-17 19:59:00,81.5,75.5,29.92,SE,137,10.7,15.8,82,0.00,CLR,,0.10,WeatherDisplay:10.37,2013-09-18 00:59:00,
2013-09-17 20:04:00,81.4,75.0,29.92,ESE,114,11.9,15.0,81,0.00,CLR,,0.10,WeatherDisplay:10.37,2013-09-18 01:04:00,
2013-09-17 20:09:00,81.9,75.5,29.92,East,88,11.2,14.5,81,0.00,CLR,,0.10,WeatherDisplay:10.37,2013-09-18 01:09:00,
2013-09-17 20:14:00,81.8,75.4,29.92,East,100,11.4,14.4,81,0.00,CLR,,0.10,WeatherDisplay:10.37,2013-09-18 01:14:00,
2013-09-17 20:19:00,81.9,75.9,29.92,ESE,121,10.8,17.3,82,0.00,CLR,,0.10,WeatherDisplay:10.37,2013-09-18 01:19:00,
2013-09-17 20:24:00,82.2,76.2,29.92,East,83,10.5,17.3,82,0.00,CLR,,0.10,WeatherDisplay:10.37,2013-09-18 01:24:00,
2013-09-17 20:29:00,82.1,76.1,29.92,ESE,120,10.6,14.1,82,0.00,CLR,,0.10,WeatherDisplay:10.37,2013-09-18 01:29:00,
2013-09-17 20:34:00,82.2,76.2,29.92,East,92,10.4,16.1,82,0.00,CLR,,0.10,WeatherDisplay:10.37,2013-09-18 01:34:00,
2013-09-17 20:39:00,82.1,76.1,29.92,SE,127,12.1,17.3,82,0.00,CLR,,0.10,WeatherDisplay:10.37,2013-09-18 01:39:00,
2013-09-17 20:44:00,82.3,76.3,29.92,East,100,10.7,13.8,82,0.00,CLR,,0.10,WeatherDisplay:10.37,2013-09-18 01:44:00,
2013-09-17 20:49:00,82.5,76.4,29.93,ESE,110,11.3,16.2,82,0.00,CLR,,0.10,WeatherDisplay:10.37,2013-09-18 01:49:00,
2013-09-17 20:54:00,82.3,76.3,29.93,SE,143,9.6,15.0,82,0.00,CLR,,0.10,WeatherDisplay:10.37,2013-09-18 01:54:00,
2013-09-17 20:59:00,82.2,76.2,29.93,SSE,150,9.0,11.5,82,0.00,CLR,,0.10,WeatherDisplay:10.37,2013-09-18 01:59:00,
2013-09-17 21:04:00,82.3,76.3,29.93,ESE,104,9.1,12.7,82,0.00,CLR,,0.10,WeatherDisplay:10.37,2013-09-18 02:04:00,
2013-09-17 21:09:00,82.2,76.5,29.93,SE,141,10.5,15.0,83,0.00,CLR,,0.10,WeatherDisplay:10.37,2013-09-18 02:09:00,
2013-09-17 21:14:00,82.2,76.5,29.93,ESE,113,10.7,14.0,83,0.00,CLR,,0.10,WeatherDisplay:10.37,2013-09-18 02:14:00,
2013-09-17 21:19:00,82.4,76.7,29.94,ESE,106,10.2,12.7,83,0.00,CLR,,0.10,WeatherDisplay:10.37,2013-09-18 02:19:00,
2013-09-17 21:24:00,82.3,76.3,29.94,ESE,112,11.6,16.1,82,0.00,CLR,,0.10,WeatherDisplay:10.37,2013-09-18 02:24:00,
2013-09-17 21:29:00,82.3,76.3,29.94,SE,130,10.6,15.6,82,0.00,CLR,,0.10,WeatherDisplay:10.37,2013-09-18 02:29:00,
2013-09-17 21:34:00,82.1,76.1,29.94,SSE,147,11.2,13.9,82,0.00,CLR,,0.10,WeatherDisplay:10.37,2013-09-18 02:34:00,
2013-09-17 21:39:00,82.0,76.0,29.94,ESE,121,10.4,12.7,82,0.00,CLR,,0.10,WeatherDisplay:10.37,2013-09-18 02:39:00,
2013-09-17 21:44:00,82.3,76.3,29.95,ESE,114,9.9,15.0,82,0.00,CLR,,0.10,WeatherDisplay:10.37,2013-09-18 02:44:00,
2013-09-17 21:49:00,82.3,76.3,29.95,SE,143,11.2,15.0,82,0.00,CLR,,0.10,WeatherDisplay:10.37,2013-09-18 02:49:00,
2013-09-17 21:54:00,82.4,76.3,29.95,SE,138,10.3,13.8,82,0.00,CLR,,0.10,WeatherDisplay:10.37,2013-09-18 02:54:00,
2013-09-17 21:59:00,82.2,76.5,29.95,ESE,119,8.9,10.4,83,0.00,CLR,,0.10,WeatherDisplay:10.37,2013-09-18 02:59:00,
2013-09-17 22:04:00,82.3,76.6,29.95,SSE,148,9.7,11.4,83,0.00,CLR,,0.10,WeatherDisplay:10.37,2013-09-18 03:04:00,
2013-09-17 22:09:00,82.1,76.4,29.95,ESE,107,11.8,17.3,83,0.00,CLR,,0.10,WeatherDisplay:10.37,2013-09-18 03:09:00,
2013-09-17 22:14:00,81.9,75.9,29.95,ESE,107,10.5,15.0,82,0.00,CLR,,0.10,WeatherDisplay:10.37,2013-09-18 03:14:00,
2013-09-17 22:19:00,81.7,75.7,29.95,East,96,8.3,11.5,82,0.00,CLR,,0.10,WeatherDisplay:10.37,2013-09-18 03:19:00,
2013-09-17 22:24:00,81.4,75.4,29.95,ESE,107,7.8,11.5,82,0.00,CLR,,0.10,WeatherDisplay:10.37,2013-09-18 03:24:00,
2013-09-17 22:29:00,81.4,75.4,29.96,SSE,155,8.0,10.6,82,0.00,CLR,,0.10,WeatherDisplay:10.37,2013-09-18 03:29:00,
2013-09-17 22:34:00,81.4,76.1,29.96,ESE,107,7.2,9.2,84,0.00,CLR,,0.10,WeatherDisplay:10.37,2013-09-18 03:34:00,
2013-09-17 22:39:00,81.8,76.8,29.96,ESE,109,11.0,16.0,85,0.00,CLR,,0.10,WeatherDisplay:10.37,2013-09-18 03:39:00,
2013-09-17 22:44:00,81.8,76.8,29.96,ESE,113,10.3,13.8,85,0.00,CLR,,0.10,WeatherDisplay:10.37,2013-09-18 03:44:00,
2013-09-17 22:49:00,82.0,77.0,29.96,SE,141,8.5,10.4,85,0.00,CLR,,0.10,WeatherDisplay:10.37,2013-09-18 03:49:00,
2013-09-17 22:54:00,81.8,76.8,29.96,East,100,10.2,17.3,85,0.00,CLR,,0.10,WeatherDisplay:10.37,2013-09-18 03:54:00,
2013-09-17 22:59:00,81.8,76.5,29.96,ESE,110,9.1,13.8,84,0.00,CLR,,0.10,WeatherDisplay:10.37,2013-09-18 03:59:00,
2013-09-17 23:01:00,81.8,76.5,29.96,SE,124,9.0,12.7,84,0.00,CLR,,0.10,WeatherDisplay:10.37,2013-09-18 04:01:00,
2013-09-17 23:02:00,82.1,76.8,29.96,SE,127,9.7,12.7,84,0.00,CLR,,0.10,WeatherDisplay:10.37,2013-09-18 04:02:00,
2013-09-17 23:03:00,81.9,76.9,29.96,SSE,150,8.9,11.5,85,0.00,CLR,,0.10,WeatherDisplay:10.37,2013-09-18 04:03:00,
2013-09-17 23:04:00,82.0,77.0,29.96,East,100,9.2,11.5,85,0.00,CLR,,0.10,WeatherDisplay:10.37,2013-09-18 04:04:00,
2013-09-17 23:09:00,82.1,77.1,29.96,SE,126,8.8,11.5,85,0.00,CLR,,0.10,WeatherDisplay:10.37,2013-09-18 04:09:00,
2013-09-17 23:14:00,82.0,77.0,29.96,ESE,103,0.0,12.7,85,0.00,CLR,,0.10,WeatherDisplay:10.37,2013-09-18 04:14:00,
2013-09-17 23:19:00,81.9,76.6,29.96,ESE,121,10.6,16.2,84,0.00,RA,,0.10,WeatherDisplay:10.37,2013-09-18 04:19:00,
2013-09-17 23:24:00,82.2,76.9,29.96,SE,131,10.0,13.1,84,0.00,RA,,0.10,WeatherDisplay:10.37,2013-09-18 04:24:00,
2013-09-17 23:29:00,81.9,76.6,29.96,East,99,10.3,13.8,84,0.00,RA,,0.10,WeatherDisplay:10.37,2013-09-18 04:29:00,
2013-09-17 23:34:00,81.9,76.6,29.95,ESE,107,9.1,14.7,84,0.00,RA,,0.10,WeatherDisplay:10.37,2013-09-18 04:34:00,
2013-09-17 23:39:00,82.0,77.0,29.96,ENE,78,11.2,15.9,85,0.00,CLR,,0.10,WeatherDisplay:10.37,2013-09-18 04:39:00,
2013-09-17 23:44:00,82.2,77.2,29.96,East,97,9.7,12.7,85,0.00,CLR,,0.10,WeatherDisplay:10.37,2013-09-18 04:44:00,
2013-09-17 23:49:00,82.0,77.0,29.96,ENE,69,11.7,15.0,85,0.00,CLR,,0.10,WeatherDisplay:10.37,2013-09-18 04:49:00,
2013-09-17 23:54:00,81.8,76.5,29.96,SSE,157,10.3,13.8,84,0.00,CLR,,0.10,WeatherDisplay:10.37,2013-09-18 04:54:00,
2013-09-17 23:59:00,81.7,76.0,29.96,East,88,9.1,11.9,83,0.00,CLR,,0.10,WeatherDisplay:10.37,2013-09-18 04:59:00,